Mora, Idaho
Current Conditions -  °F | °C
As of 4:53 PM on Monday 20 Oct 2014 (Local Time) from KBOI Reporting Station
Clear Clear  
Wind Chill: 75°   Ceiling: Unl
Heat Index: 75°   Visibility: 10mi
Dew Point: 37°   Wind: 5mph
Humidity: 25%   Direction: 330°NNW
Pressure: 29.74"   Gusts: NA
Location:  43.5413°N, 116.27°W
Report Text: KBOI 202253Z 33004KT 10SM CLR 24/03 A2974 RMK AO2 SLP051 T02390028
Loading
Personal Weather Stations






























Interactive Weather Map
Tropical Storm Tracking
New forecast layout! Learn more

10-Day Weather Forecast

Advertisements
Track Severe Weather on mobile